createdAt,value
2022-12-09T00:00:18.645Z,27.15
2022-12-09T00:02:46.801Z,26.38
2022-12-09T00:05:15.327Z,31.17
2022-12-09T00:07:44.842Z,26.13
2022-12-09T00:10:13.046Z,25.00
2022-12-09T00:12:41.147Z,25.40
2022-12-09T00:15:09.742Z,24.92
2022-12-09T00:17:38.335Z,23.80
2022-12-09T00:20:08.505Z,26.73
2022-12-09T00:22:36.934Z,26.33
2022-12-09T00:25:07.372Z,24.30
2022-12-09T00:27:35.435Z,29.85
2022-12-09T00:30:04.128Z,21.77
2022-12-09T00:32:33.329Z,23.80
2022-12-09T00:35:01.860Z,24.13
2022-12-09T00:37:30.165Z,29.38
2022-12-09T00:39:59.881Z,26.92
2022-12-09T00:42:29.473Z,28.00
2022-12-09T00:44:57.751Z,21.40
2022-12-09T00:47:26.590Z,24.58
2022-12-09T00:49:54.669Z,23.33
2022-12-09T00:52:22.811Z,25.40
2022-12-09T00:54:50.861Z,24.73
2022-12-09T00:57:19.256Z,28.40
2022-12-09T00:59:49.391Z,26.92
2022-12-09T01:02:17.619Z,25.52
2022-12-09T01:04:46.092Z,29.48
2022-12-09T01:07:15.637Z,25.75
2022-12-09T01:09:48.755Z,35.65
2022-12-09T01:12:17.199Z,23.70
2022-12-09T01:14:45.539Z,26.42
2022-12-09T01:17:15.052Z,22.95
2022-12-09T01:19:43.332Z,25.50
2022-12-09T01:22:11.674Z,25.17
2022-12-09T01:24:39.979Z,22.38
2022-12-09T01:27:08.234Z,28.70
2022-12-09T01:29:36.704Z,26.45
2022-12-09T01:32:05.060Z,26.08
2022-12-09T01:34:34.995Z,25.30
2022-12-09T01:37:03.101Z,22.80
2022-12-09T01:39:31.951Z,21.83
2022-12-09T01:42:02.545Z,24.85
2022-12-09T01:44:33.406Z,26.33
2022-12-09T01:47:03.068Z,21.92
2022-12-09T01:49:36.266Z,22.45
2022-12-09T01:52:14.694Z,23.63
2022-12-09T01:54:47.958Z,25.50
2022-12-09T01:57:16.672Z,21.80
2022-12-09T01:59:45.970Z,24.83
2022-12-09T02:02:17.892Z,25.85
2022-12-09T02:04:50.035Z,26.60
2022-12-09T02:07:20.551Z,29.45
2022-12-09T02:09:53.205Z,24.33
2022-12-09T02:12:34.845Z,26.35
2022-12-09T02:17:41.923Z,26.20
2022-12-09T02:20:18.600Z,25.55
2022-12-09T02:22:50.420Z,26.95
2022-12-09T02:25:34.518Z,28.42
2022-12-09T02:28:25.887Z,24.92
2022-12-09T02:31:03.035Z,27.08
2022-12-09T02:33:43.012Z,26.85
2022-12-09T02:36:19.349Z,25.08
2022-12-09T02:38:51.171Z,24.42
2022-12-09T02:41:24.894Z,25.77
2022-12-09T02:43:56.656Z,25.65
2022-12-09T02:46:30.863Z,25.55
2022-12-09T02:49:01.085Z,21.42
2022-12-09T02:51:34.703Z,26.58
2022-12-09T02:54:08.793Z,26.42
2022-12-09T02:56:40.055Z,23.50
2022-12-09T02:59:08.433Z,27.25
2022-12-09T03:01:42.872Z,22.45
2022-12-09T03:04:17.609Z,29.70
2022-12-09T03:06:51.699Z,27.08
2022-12-09T03:09:25.028Z,24.52
2022-12-09T03:11:55.043Z,28.75
2022-12-09T03:14:28.360Z,23.83
2022-12-09T03:17:06.206Z,21.98
2022-12-09T03:19:37.393Z,24.92
2022-12-09T03:22:12.993Z,23.55
2022-12-09T03:24:46.619Z,24.83
2022-12-09T03:27:19.429Z,23.75
2022-12-09T03:29:49.849Z,25.15
2022-12-09T03:32:21.706Z,26.75
2022-12-09T03:34:52.261Z,25.48
2022-12-09T03:37:23.205Z,27.65
2022-12-09T03:39:53.092Z,29.77
2022-12-09T03:42:25.096Z,25.20
2022-12-09T03:44:57.975Z,24.42
2022-12-09T03:47:26.083Z,24.77
2022-12-09T03:49:54.773Z,24.02
2022-12-09T03:52:28.810Z,28.35
2022-12-09T03:55:01.045Z,28.25
2022-12-09T03:57:30.346Z,24.83
2022-12-09T04:00:01.898Z,27.77
2022-12-09T04:02:30.538Z,24.75
2022-12-09T04:04:58.857Z,28.95
2022-12-09T04:07:28.515Z,26.25
2022-12-09T04:09:57.154Z,25.52
2022-12-09T04:12:25.340Z,28.88
2022-12-09T04:14:53.754Z,30.25
2022-12-09T04:17:22.096Z,30.25
2022-12-09T04:19:51.910Z,29.52
2022-12-09T04:22:22.513Z,27.00
2022-12-09T04:24:52.001Z,31.65
2022-12-09T04:27:20.245Z,33.55
2022-12-09T04:29:48.762Z,34.72
2022-12-09T04:32:17.137Z,34.28
2022-12-09T04:34:45.571Z,36.35
2022-12-09T04:37:16.071Z,37.47
2022-12-09T04:39:44.231Z,35.83
2022-12-09T04:42:13.688Z,36.70
2022-12-09T04:44:41.900Z,36.00
2022-12-09T04:47:10.023Z,35.55
2022-12-09T04:49:38.901Z,33.92
2022-12-09T04:52:07.152Z,37.50
2022-12-09T04:54:35.141Z,34.08
2022-12-09T04:57:03.173Z,34.53
2022-12-09T04:59:33.696Z,36.92
2022-12-09T05:02:01.847Z,34.10
2022-12-09T05:04:30.462Z,37.15
2022-12-09T05:06:58.868Z,39.95
2022-12-09T05:09:27.244Z,37.42
2022-12-09T05:11:57.529Z,39.80
2022-12-09T05:14:25.852Z,39.92
2022-12-09T05:16:55.426Z,37.10
2022-12-09T05:19:24.293Z,42.90
2022-12-09T05:21:52.979Z,33.47
2022-12-09T05:24:21.280Z,32.85
2022-12-09T05:26:49.579Z,39.92
2022-12-09T05:29:22.490Z,37.35
2022-12-09T05:31:51.728Z,34.65
2022-12-09T05:34:21.886Z,41.60
2022-12-09T05:36:50.253Z,36.25
2022-12-09T05:39:19.286Z,47.45
2022-12-09T05:41:48.004Z,44.47
2022-12-09T05:44:16.630Z,41.28
2022-12-09T05:46:45.427Z,41.60
2022-12-09T05:49:13.724Z,44.35
2022-12-09T05:51:43.231Z,43.88
2022-12-09T05:54:11.932Z,42.55
2022-12-09T05:56:46.107Z,43.35
2022-12-09T05:59:16.350Z,42.53
2022-12-09T06:01:44.613Z,47.80
2022-12-09T06:04:12.869Z,44.30
2022-12-09T06:06:41.573Z,52.88
2022-12-09T06:09:12.155Z,42.90
2022-12-09T06:11:41.332Z,48.22
2022-12-09T06:14:10.860Z,45.53
2022-12-09T06:16:39.885Z,58.58
2022-12-09T06:19:08.184Z,54.00
2022-12-09T06:21:36.452Z,51.28
2022-12-09T06:24:06.815Z,46.60
2022-12-09T06:26:36.380Z,46.20
2022-12-09T06:29:04.837Z,51.30
2022-12-09T06:31:33.415Z,46.25
2022-12-09T06:34:02.814Z,44.45
2022-12-09T06:36:32.701Z,49.58
2022-12-09T06:39:09.633Z,45.15
2022-12-09T06:41:41.573Z,46.03
2022-12-09T06:44:09.876Z,49.33
2022-12-09T06:46:38.338Z,44.10
2022-12-09T06:49:07.148Z,47.55
2022-12-09T06:51:35.294Z,46.75
2022-12-09T06:54:03.858Z,44.95
2022-12-09T06:56:33.367Z,42.65
2022-12-09T06:59:07.186Z,41.70
2022-12-09T07:01:35.864Z,42.72
2022-12-09T07:04:06.437Z,43.35
2022-12-09T07:06:36.595Z,43.88
2022-12-09T07:09:07.527Z,46.78
2022-12-09T07:11:36.811Z,52.13
2022-12-09T07:14:06.807Z,41.25
2022-12-09T07:16:35.845Z,45.10
2022-12-09T07:19:05.288Z,48.83
2022-12-09T07:21:34.514Z,47.78
2022-12-09T07:24:03.920Z,41.28
2022-12-09T07:26:32.903Z,44.45
2022-12-09T07:29:03.063Z,46.33
2022-12-09T07:31:33.671Z,43.00
2022-12-09T07:34:03.045Z,44.08
2022-12-09T07:36:33.042Z,44.67
2022-12-09T07:39:03.269Z,38.08
2022-12-09T07:41:31.687Z,42.90
2022-12-09T07:44:00.493Z,45.50
2022-12-09T07:46:29.065Z,43.85
2022-12-09T07:48:59.672Z,45.38
2022-12-09T07:51:29.569Z,47.95
2022-12-09T07:53:58.861Z,39.92
2022-12-09T07:56:29.392Z,41.78
2022-12-09T07:58:59.498Z,48.33
2022-12-09T08:01:30.234Z,53.63
2022-12-09T08:04:01.519Z,43.97
2022-12-09T08:06:32.216Z,39.72
2022-12-09T08:09:02.002Z,42.47
2022-12-09T08:11:33.016Z,41.17
2022-12-09T08:14:09.013Z,39.33
2022-12-09T08:16:40.310Z,37.42
2022-12-09T08:19:10.514Z,44.60
2022-12-09T08:21:39.823Z,39.28
2022-12-09T08:24:08.795Z,47.10
2022-12-09T08:26:39.285Z,37.72
2022-12-09T08:29:10.158Z,41.60
2022-12-09T08:31:41.756Z,34.50
2022-12-09T08:34:12.206Z,41.75
2022-12-09T08:36:44.345Z,30.40
2022-12-09T08:39:13.957Z,34.80
2022-12-09T08:41:43.948Z,36.85
2022-12-09T08:44:15.548Z,31.90
2022-12-09T08:46:46.434Z,29.23
2022-12-09T08:49:18.966Z,30.00
2022-12-09T08:51:49.417Z,23.95
2022-12-09T08:54:18.091Z,24.33
2022-12-09T08:56:47.790Z,23.20
2022-12-09T08:59:17.734Z,27.75
2022-12-09T09:01:46.622Z,23.65
2022-12-09T09:04:19.296Z,26.50
2022-12-09T09:06:50.580Z,32.88
2022-12-09T09:09:20.369Z,30.98
2022-12-09T09:11:49.556Z,24.73
2022-12-09T09:14:18.396Z,28.75
2022-12-09T09:16:47.305Z,26.63
2022-12-09T09:19:20.358Z,28.17
2022-12-09T09:21:49.074Z,26.02
2022-12-09T09:24:19.862Z,20.75
2022-12-09T09:26:52.495Z,24.67
2022-12-09T09:29:22.815Z,23.58
2022-12-09T09:31:54.509Z,23.83
2022-12-09T09:34:29.356Z,23.52
2022-12-09T09:36:58.582Z,17.45
2022-12-09T09:39:26.937Z,25.63
2022-12-09T09:42:03.225Z,25.83
2022-12-09T09:44:41.146Z,26.27
2022-12-09T09:47:19.869Z,26.90
2022-12-09T09:49:55.081Z,23.75
2022-12-09T09:52:26.817Z,23.50
2022-12-09T09:54:56.336Z,22.27
2022-12-09T09:57:30.727Z,22.38
2022-12-09T10:00:11.070Z,23.50
2022-12-09T10:03:00.093Z,23.57
2022-12-09T10:08:22.826Z,21.17
2022-12-09T10:11:02.784Z,22.48
2022-12-09T10:13:48.313Z,18.50
2022-12-09T10:16:19.274Z,17.80
2022-12-09T10:19:06.032Z,15.80
2022-12-09T10:21:42.838Z,21.58
2022-12-09T10:24:25.019Z,22.27
2022-12-09T10:27:03.015Z,16.58
2022-12-09T10:29:49.936Z,14.25
2022-12-09T10:32:21.601Z,16.17
2022-12-09T10:34:50.609Z,14.48
2022-12-09T10:37:33.023Z,15.00
2022-12-09T10:40:13.915Z,13.52
2022-12-09T10:43:04.857Z,16.77
2022-12-09T10:46:07.993Z,17.40
2022-12-09T10:48:32.735Z,16.45
2022-12-09T10:51:05.028Z,14.25
2022-12-09T10:53:36.869Z,13.70
2022-12-09T10:56:06.515Z,12.02
2022-12-09T10:58:34.773Z,13.57
2022-12-09T11:01:10.248Z,15.45
2022-12-09T11:03:41.453Z,13.80
2022-12-09T11:06:21.807Z,16.05
2022-12-09T11:08:54.578Z,15.80
2022-12-09T11:11:40.552Z,18.20
2022-12-09T11:14:24.084Z,15.27
2022-12-09T11:16:54.840Z,14.98
2022-12-09T11:19:31.887Z,15.07
2022-12-09T11:22:31.785Z,16.45
2022-12-09T11:25:25.704Z,16.23
2022-12-09T11:27:57.080Z,16.65
2022-12-09T11:30:28.956Z,14.98
2022-12-09T11:33:01.428Z,17.88
2022-12-09T11:35:34.092Z,17.20
2022-12-09T11:38:15.999Z,17.75
2022-12-09T11:41:01.191Z,14.35
2022-12-09T11:43:39.597Z,20.08
2022-12-09T11:46:28.367Z,17.52
2022-12-09T11:49:00.888Z,15.50
2022-12-09T11:51:48.963Z,15.35
2022-12-09T11:54:23.279Z,16.48
2022-12-09T11:56:59.674Z,18.80
2022-12-09T11:59:37.815Z,17.70
2022-12-09T12:02:13.320Z,17.85
2022-12-09T12:07:19.310Z,17.95
2022-12-09T12:09:54.610Z,16.13
2022-12-09T12:12:33.050Z,19.88
2022-12-09T12:15:21.474Z,17.27
2022-12-09T12:17:53.559Z,15.98
2022-12-09T12:20:26.793Z,16.83
2022-12-09T12:23:28.020Z,16.02
2022-12-09T12:26:05.772Z,17.10
2022-12-09T12:29:05.511Z,16.77
2022-12-09T12:31:55.645Z,18.25
2022-12-09T12:34:38.880Z,18.35
2022-12-09T12:37:25.881Z,16.50
2022-12-09T12:40:04.843Z,16.15
2022-12-09T12:43:06.516Z,19.65
2022-12-09T12:46:07.055Z,17.40
2022-12-09T12:48:47.380Z,18.20
2022-12-09T12:51:24.937Z,13.90
2022-12-09T12:54:02.482Z,17.90
2022-12-09T12:56:38.043Z,18.25
2022-12-09T12:59:16.046Z,15.68
2022-12-09T13:01:54.601Z,15.88
2022-12-09T13:04:28.578Z,17.45
2022-12-09T13:07:04.480Z,16.73
2022-12-09T13:09:40.365Z,18.02
2022-12-09T13:12:17.710Z,17.45
2022-12-09T13:14:54.022Z,19.58
2022-12-09T13:17:28.687Z,20.13
2022-12-09T13:20:01.360Z,18.48
2022-12-09T13:22:38.593Z,17.55
2022-12-09T13:25:20.205Z,20.60
2022-12-09T13:27:56.125Z,18.63
2022-12-09T13:30:32.324Z,19.08
2022-12-09T13:33:26.852Z,18.58
2022-12-09T13:36:06.459Z,18.55
2022-12-09T13:38:43.359Z,19.20
2022-12-09T13:41:59.418Z,18.40
2022-12-09T13:44:35.825Z,18.45
2022-12-09T13:47:25.909Z,24.67
2022-12-09T13:50:03.402Z,18.60
2022-12-09T13:52:50.669Z,17.52
2022-12-09T13:55:30.866Z,16.00
2022-12-09T13:58:11.522Z,17.08
2022-12-09T14:00:43.959Z,20.48
2022-12-09T14:03:49.727Z,17.30
2022-12-09T14:06:36.467Z,19.05
2022-12-09T14:09:18.129Z,17.05
2022-12-09T14:11:53.058Z,24.02
2022-12-09T14:14:49.048Z,18.38
2022-12-09T14:19:56.591Z,20.20
2022-12-09T14:22:42.216Z,20.45
2022-12-09T14:25:51.360Z,21.33
2022-12-09T14:28:41.903Z,17.88
2022-12-09T14:31:12.330Z,18.83
2022-12-09T14:33:46.143Z,17.08
2022-12-09T14:36:26.136Z,17.70
2022-12-09T14:42:00.228Z,19.90
2022-12-09T14:44:34.133Z,17.88
2022-12-09T14:47:20.388Z,17.88
2022-12-09T14:49:51.591Z,15.20
2022-12-09T14:52:26.284Z,18.80
2022-12-09T14:54:59.615Z,17.25
2022-12-09T14:57:35.586Z,17.70
2022-12-09T15:00:26.477Z,18.63
2022-12-09T15:05:59.365Z,19.38
2022-12-09T15:08:30.628Z,19.10
2022-12-09T15:11:02.693Z,17.77
2022-12-09T15:13:40.159Z,18.75
2022-12-09T15:16:30.089Z,16.20
2022-12-09T15:19:16.656Z,20.33
2022-12-09T15:21:52.922Z,22.60
2022-12-09T15:24:48.943Z,19.83
2022-12-09T15:27:22.089Z,18.67
2022-12-09T15:29:51.193Z,17.92
2022-12-09T15:32:25.080Z,20.65
2022-12-09T15:34:55.356Z,14.43
2022-12-09T15:37:29.089Z,17.08
2022-12-09T15:40:04.319Z,19.80
2022-12-09T15:42:38.729Z,20.70
2022-12-09T15:48:17.415Z,19.20
2022-12-09T15:50:51.858Z,19.15
2022-12-09T15:53:37.759Z,17.20
2022-12-09T15:56:12.691Z,16.65
2022-12-09T16:02:03.631Z,21.15
2022-12-09T16:14:47.775Z,20.50
2022-12-09T16:20:35.618Z,18.45
2022-12-09T16:23:08.232Z,19.35
2022-12-09T16:25:40.479Z,20.63
2022-12-09T16:28:24.225Z,19.20
2022-12-09T16:31:01.118Z,18.30
2022-12-09T16:33:32.399Z,22.05
2022-12-09T16:36:06.051Z,22.95
2022-12-09T16:38:37.231Z,19.27
2022-12-09T16:41:15.510Z,18.83
2022-12-09T16:43:58.337Z,20.73
2022-12-09T16:46:44.938Z,18.38
2022-12-09T16:49:13.587Z,19.15
2022-12-09T16:51:42.189Z,19.85
2022-12-09T16:57:17.853Z,18.33
2022-12-09T16:59:47.723Z,19.00
2022-12-09T17:02:50.073Z,20.50
2022-12-09T17:05:19.260Z,18.27
2022-12-09T17:07:48.252Z,16.10
2022-12-09T17:10:17.936Z,21.52
2022-12-09T17:12:47.076Z,18.08
2022-12-09T17:15:17.123Z,22.00
2022-12-09T17:17:49.409Z,19.83
2022-12-09T17:20:19.304Z,18.92
2022-12-09T17:22:48.342Z,16.33
2022-12-09T17:25:17.155Z,17.05
2022-12-09T17:27:45.868Z,19.95
2022-12-09T17:30:16.173Z,20.67
2022-12-09T17:32:46.910Z,14.98
2022-12-09T17:35:16.605Z,18.70
2022-12-09T17:37:47.465Z,19.38
2022-12-09T17:40:16.746Z,25.45
2022-12-09T17:42:46.377Z,21.20
2022-12-09T17:45:22.983Z,16.27
2022-12-09T17:47:53.225Z,19.98
2022-12-09T17:50:22.824Z,19.38
2022-12-09T17:52:51.677Z,20.50
2022-12-09T17:55:21.538Z,19.25
2022-12-09T17:57:54.121Z,16.95
2022-12-09T18:00:23.658Z,19.50
2022-12-09T18:02:53.813Z,17.73
2022-12-09T18:05:23.677Z,21.67
2022-12-09T18:07:55.525Z,22.13
2022-12-09T18:10:25.901Z,20.45
2022-12-09T18:12:56.102Z,21.52
2022-12-09T18:15:27.566Z,18.38
2022-12-09T18:17:59.735Z,19.83
2022-12-09T18:20:28.353Z,19.73
2022-12-09T18:22:58.618Z,20.52
2022-12-09T18:25:27.150Z,19.42
2022-12-09T18:27:56.155Z,24.10
2022-12-09T18:30:26.835Z,23.55
2022-12-09T18:32:58.069Z,20.92
2022-12-09T18:35:28.292Z,19.05
2022-12-09T18:38:06.038Z,21.67
2022-12-09T18:41:00.863Z,18.58
2022-12-09T18:43:31.535Z,20.42
2022-12-09T18:46:03.920Z,19.77
2022-12-09T18:48:35.816Z,20.73
2022-12-09T18:51:05.182Z,17.65
2022-12-09T18:53:33.789Z,21.55
2022-12-09T18:56:05.745Z,19.92
2022-12-09T18:59:04.701Z,22.52
2022-12-09T19:01:29.972Z,18.45
2022-12-09T19:04:02.128Z,22.90
2022-12-09T19:06:32.608Z,21.25
2022-12-09T19:09:03.702Z,22.42
2022-12-09T19:11:35.012Z,21.60
2022-12-09T19:14:05.952Z,23.60
2022-12-09T19:16:36.162Z,26.30
2022-12-09T19:19:09.990Z,24.75
2022-12-09T19:21:48.994Z,19.85
2022-12-09T19:24:19.409Z,25.33
2022-12-09T19:26:48.512Z,22.90
2022-12-09T19:29:18.027Z,26.92
2022-12-09T19:31:48.702Z,27.85
2022-12-09T19:34:21.359Z,26.17
2022-12-09T19:36:51.373Z,25.73
2022-12-09T19:39:24.034Z,25.23
2022-12-09T19:41:53.208Z,27.55
2022-12-09T19:44:44.368Z,28.33
2022-12-09T19:47:11.297Z,27.48
2022-12-09T19:49:42.710Z,30.77
2022-12-09T19:52:14.068Z,26.98
2022-12-09T19:54:43.302Z,27.42
2022-12-09T19:57:11.662Z,24.05
2022-12-09T19:59:40.437Z,27.90
2022-12-09T20:02:12.099Z,29.45
2022-12-09T20:04:50.745Z,28.48
2022-12-09T20:07:20.388Z,26.42
2022-12-09T20:09:52.605Z,28.10
2022-12-09T20:12:21.239Z,29.30
2022-12-09T20:14:49.807Z,28.42
2022-12-09T20:17:18.629Z,28.70
2022-12-09T20:19:49.229Z,29.98
2022-12-09T20:22:18.950Z,27.83
2022-12-09T20:24:48.820Z,27.92
2022-12-09T20:27:21.544Z,27.15
2022-12-09T20:29:53.813Z,29.00
2022-12-09T20:32:23.796Z,27.05
2022-12-09T20:34:55.819Z,26.67
2022-12-09T20:37:24.525Z,27.05
2022-12-09T20:39:53.397Z,29.73
2022-12-09T20:42:23.830Z,29.52
2022-12-09T20:44:53.039Z,28.65
2022-12-09T20:47:21.750Z,30.67
2022-12-09T20:49:50.677Z,29.67
2022-12-09T20:52:20.617Z,29.08
2022-12-09T20:54:49.834Z,31.10
2022-12-09T20:57:18.767Z,31.27
2022-12-09T20:59:47.471Z,33.20
2022-12-09T21:02:17.423Z,29.77
2022-12-09T21:04:46.711Z,32.70
2022-12-09T21:07:15.463Z,32.42
2022-12-09T21:09:53.973Z,32.13
2022-12-09T21:12:23.040Z,30.58
2022-12-09T21:14:51.779Z,31.65
2022-12-09T21:17:20.690Z,30.42
2022-12-09T21:19:49.876Z,32.28
2022-12-09T21:22:18.543Z,31.30
2022-12-09T21:24:48.787Z,31.40
2022-12-09T21:27:17.273Z,31.30
2022-12-09T21:29:45.835Z,35.30
2022-12-09T21:32:14.595Z,32.50
2022-12-09T21:34:44.536Z,34.72
2022-12-09T21:37:13.200Z,30.80
2022-12-09T21:39:42.560Z,34.65
2022-12-09T21:42:12.532Z,31.50
2022-12-09T21:44:42.320Z,30.80
2022-12-09T21:47:11.304Z,33.85
2022-12-09T21:49:39.994Z,32.53
2022-12-09T21:52:09.905Z,35.97
2022-12-09T21:54:38.589Z,35.97
2022-12-09T21:57:07.460Z,39.28
2022-12-09T21:59:37.248Z,33.03
2022-12-09T22:02:06.788Z,34.92
2022-12-09T22:04:35.428Z,33.70
2022-12-09T22:07:04.328Z,35.50
2022-12-09T22:09:33.055Z,37.95
2022-12-09T22:12:01.875Z,34.38
2022-12-09T22:14:30.379Z,37.10
2022-12-09T22:17:00.569Z,35.88
2022-12-09T22:19:29.827Z,33.25
2022-12-09T22:22:08.850Z,36.35
2022-12-09T22:24:39.317Z,34.58
2022-12-09T22:27:07.872Z,33.83
2022-12-09T22:29:36.177Z,37.33
2022-12-09T22:32:07.131Z,37.97
2022-12-09T22:34:35.409Z,38.80
2022-12-09T22:37:21.274Z,35.03
2022-12-09T22:39:52.186Z,35.72
2022-12-09T22:42:20.433Z,36.83
2022-12-09T22:44:48.680Z,35.28
2022-12-09T22:47:18.735Z,38.53
2022-12-09T22:49:47.320Z,35.03
2022-12-09T22:52:18.508Z,38.05
2022-12-09T22:54:49.702Z,34.78
2022-12-09T22:57:19.054Z,36.67
2022-12-09T22:59:47.759Z,33.97
2022-12-09T23:02:19.044Z,41.53
2022-12-09T23:04:47.514Z,39.78
2022-12-09T23:07:15.780Z,35.40
2022-12-09T23:09:44.642Z,37.63
2022-12-09T23:12:12.867Z,38.67
2022-12-09T23:14:41.533Z,36.53
2022-12-09T23:17:09.825Z,36.20
2022-12-09T23:19:40.113Z,36.97
2022-12-09T23:22:08.727Z,35.22
2022-12-09T23:24:37.228Z,39.25
2022-12-09T23:27:06.181Z,35.35
2022-12-09T23:29:34.998Z,39.65
2022-12-09T23:32:04.115Z,38.10
2022-12-09T23:34:32.521Z,37.17
2022-12-09T23:37:04.262Z,38.13
2022-12-09T23:39:33.012Z,41.00
2022-12-09T23:42:01.437Z,35.25
2022-12-09T23:44:30.168Z,38.47
2022-12-09T23:46:58.747Z,41.10
2022-12-09T23:49:28.776Z,37.78
2022-12-09T23:51:57.076Z,48.08
2022-12-09T23:54:26.678Z,41.17
2022-12-09T23:56:54.856Z,39.00
2022-12-09T23:59:25.033Z,42.75
